Union Center, Wisconsin
Current Conditions -  °F | °C
As of 2:55 PM on Saturday 25 Oct 2014 (Local Time) from KVOK Reporting Station
Clear Clear  
Wind Chill: 64°   Ceiling: Unl
Heat Index: 64°   Visibility: 10mi
Dew Point: 30°   Wind: 16mph
Humidity: 28%   Direction: 280°W
Pressure: 29.94"   Gusts: 24mph
Location:  43.69°N, 90.27°W
Report Text: KVOK 251955Z 28014G21KT 10SM CLR 18/M01 A2994 RMK AO2A SLP140
Loading
Personal Weather Stations






























Interactive Weather Map
Tropical Storm Tracking
New forecast layout! Learn more

10-Day Weather Forecast

Advertisements
Track Severe Weather on mobile